sensor_id;sensor_type;location;lat;lon;timestamp;pressure;altitude;pressure_sealevel;temperature;humidity
64835;BME280;51293;59.296;18.006;2023-01-29T00:01:35;100790.44;;;-0.51;100.00
64835;BME280;51293;59.296;18.006;2023-01-29T00:04:00;100793.16;;;-0.43;100.00
64835;BME280;51293;59.296;18.006;2023-01-29T00:06:25;100797.81;;;-0.45;100.00
64835;BME280;51293;59.296;18.006;2023-01-29T00:08:51;100793.00;;;-0.41;100.00
64835;BME280;51293;59.296;18.006;2023-01-29T00:11:16;100795.97;;;-0.44;100.00
64835;BME280;51293;59.296;18.006;2023-01-29T00:13:42;100805.47;;;-0.42;100.00
64835;BME280;51293;59.296;18.006;2023-01-29T00:16:08;100790.13;;;-0.48;100.00
64835;BME280;51293;59.296;18.006;2023-01-29T00:18:37;100793.41;;;-0.54;100.00
64835;BME280;51293;59.296;18.006;2023-01-29T00:21:03;100795.31;;;-0.46;100.00
64835;BME280;51293;59.296;18.006;2023-01-29T00:23:28;100798.59;;;-0.52;100.00
64835;BME280;51293;59.296;18.006;2023-01-29T00:25:53;100791.97;;;-0.48;100.00
64835;BME280;51293;59.296;18.006;2023-01-29T00:28:19;100792.25;;;-0.51;100.00
64835;BME280;51293;59.296;18.006;2023-01-29T00:30:44;100786.72;;;-0.58;100.00
64835;BME280;51293;59.296;18.006;2023-01-29T00:33:10;100795.56;;;-0.58;100.00
64835;BME280;51293;59.296;18.006;2023-01-29T00:35:38;100782.28;;;-0.58;100.00
64835;BME280;51293;59.296;18.006;2023-01-29T00:38:04;100788.94;;;-0.53;100.00
64835;BME280;51293;59.296;18.006;2023-01-29T00:40:29;100791.66;;;-0.45;100.00
64835;BME280;51293;59.296;18.006;2023-01-29T00:43:14;100798.97;;;-0.47;100.00
64835;BME280;51293;59.296;18.006;2023-01-29T00:45:58;100791.13;;;-0.49;100.00
64835;BME280;51293;59.296;18.006;2023-01-29T00:48:23;100789.97;;;-0.46;100.00
64835;BME280;51293;59.296;18.006;2023-01-29T00:50:49;100796.63;;;-0.42;100.00
64835;BME280;51293;59.296;18.006;2023-01-29T00:53:14;100793.47;;;-0.46;100.00
64835;BME280;51293;59.296;18.006;2023-01-29T00:55:40;100794.97;;;-0.43;100.00
64835;BME280;51293;59.296;18.006;2023-01-29T00:58:05;100797.69;;;-0.35;100.00
64835;BME280;51293;59.296;18.006;2023-01-29T01:00:30;100790.34;;;-0.41;100.00
64835;BME280;51293;59.296;18.006;2023-01-29T01:02:55;100788.00;;;-0.44;100.00
64835;BME280;51293;59.296;18.006;2023-01-29T01:05:30;100782.41;;;-0.33;100.00
64835;BME280;51293;59.296;18.006;2023-01-29T01:07:57;100776.19;;;-0.42;100.00
64835;BME280;51293;59.296;18.006;2023-01-29T01:10:31;100777.56;;;-0.38;100.00
64835;BME280;51293;59.296;18.006;2023-01-29T01:13:05;100773.22;;;-0.39;100.00
64835;BME280;51293;59.296;18.006;2023-01-29T01:15:34;100775.34;;;-0.42;100.00
64835;BME280;51293;59.296;18.006;2023-01-29T01:18:01;100784.88;;;-0.40;100.00
64835;BME280;51293;59.296;18.006;2023-01-29T01:20:29;100777.03;;;-0.41;100.00
64835;BME280;51293;59.296;18.006;2023-01-29T01:22:55;100772.03;;;-0.44;100.00
64835;BME280;51293;59.296;18.006;2023-01-29T01:25:22;100768.53;;;-0.45;100.00
64835;BME280;51293;59.296;18.006;2023-01-29T01:27:51;100763.38;;;-0.46;100.00
64835;BME280;51293;59.296;18.006;2023-01-29T01:30:17;100753.06;;;-0.49;100.00
64835;BME280;51293;59.296;18.006;2023-01-29T01:32:42;100755.72;;;-0.49;100.00
64835;BME280;51293;59.296;18.006;2023-01-29T01:35:09;100751.72;;;-0.45;100.00
64835;BME280;51293;59.296;18.006;2023-01-29T01:37:35;100749.53;;;-0.50;100.00
64835;BME280;51293;59.296;18.006;2023-01-29T01:40:06;100742.88;;;-0.54;100.00
64835;BME280;51293;59.296;18.006;2023-01-29T01:42:38;100738.72;;;-0.57;100.00
64835;BME280;51293;59.296;18.006;2023-01-29T01:45:05;100739.00;;;-0.60;100.00
64835;BME280;51293;59.296;18.006;2023-01-29T01:47:43;100743.66;;;-0.62;100.00
64835;BME280;51293;59.296;18.006;2023-01-29T01:50:15;100732.66;;;-0.67;100.00
64835;BME280;51293;59.296;18.006;2023-01-29T01:52:46;100722.88;;;-0.66;100.00
64835;BME280;51293;59.296;18.006;2023-01-29T01:55:16;100728.53;;;-0.61;100.00
64835;BME280;51293;59.296;18.006;2023-01-29T01:57:46;100721.34;;;-0.69;100.00
64835;BME280;51293;59.296;18.006;2023-01-29T02:00:14;100718.69;;;-0.69;100.00
64835;BME280;51293;59.296;18.006;2023-01-29T02:02:42;100703.34;;;-0.75;100.00
64835;BME280;51293;59.296;18.006;2023-01-29T02:05:30;100695.69;;;-0.78;100.00
64835;BME280;51293;59.296;18.006;2023-01-29T02:08:18;100705.16;;;-0.75;100.00
64835;BME280;51293;59.296;18.006;2023-01-29T02:11:06;100695.09;;;-0.64;100.00
64835;BME280;51293;59.296;18.006;2023-01-29T02:13:32;100695.53;;;-0.76;100.00
64835;BME280;51293;59.296;18.006;2023-01-29T02:15:58;100690.84;;;-0.82;100.00
64835;BME280;51293;59.296;18.006;2023-01-29T02:18:23;100682.00;;;-0.83;100.00
64835;BME280;51293;59.296;18.006;2023-01-29T02:21:13;100679.31;;;-0.91;100.00
64835;BME280;51293;59.296;18.006;2023-01-29T02:27:56;100677.09;;;-1.04;100.00
64835;BME280;51293;59.296;18.006;2023-01-29T02:30:32;100678.09;;;-1.05;100.00
64835;BME280;51293;59.296;18.006;2023-01-29T02:33:20;100671.34;;;-0.91;100.00
64835;BME280;51293;59.296;18.006;2023-01-29T02:38:49;100666.06;;;-1.09;100.00
64835;BME280;51293;59.296;18.006;2023-01-29T02:41:37;100653.13;;;-1.12;100.00
64835;BME280;51293;59.296;18.006;2023-01-29T02:44:16;100646.44;;;-1.16;100.00
64835;BME280;51293;59.296;18.006;2023-01-29T02:47:04;100627.78;;;-1.24;100.00
64835;BME280;51293;59.296;18.006;2023-01-29T02:49:47;100633.09;;;-1.24;100.00
64835;BME280;51293;59.296;18.006;2023-01-29T02:52:16;100627.44;;;-1.29;100.00
64835;BME280;51293;59.296;18.006;2023-01-29T02:54:55;100627.75;;;-1.32;100.00
64835;BME280;51293;59.296;18.006;2023-01-29T02:57:30;100628.25;;;-1.29;100.00
64835;BME280;51293;59.296;18.006;2023-01-29T03:02:43;100614.59;;;-1.34;100.00
64835;BME280;51293;59.296;18.006;2023-01-29T03:05:16;100601.13;;;-1.40;100.00
64835;BME280;51293;59.296;18.006;2023-01-29T03:07:51;100608.09;;;-1.39;100.00
64835;BME280;51293;59.296;18.006;2023-01-29T03:10:23;100603.78;;;-1.40;100.00
64835;BME280;51293;59.296;18.006;2023-01-29T03:12:55;100601.19;;;-1.32;100.00
64835;BME280;51293;59.296;18.006;2023-01-29T03:15:48;100590.53;;;-1.32;100.00
64835;BME280;51293;59.296;18.006;2023-01-29T03:18:22;100589.00;;;-1.35;100.00
64835;BME280;51293;59.296;18.006;2023-01-29T03:20:54;100589.34;;;-1.38;100.00
64835;BME280;51293;59.296;18.006;2023-01-29T03:23:27;100589.50;;;-1.39;100.00
64835;BME280;51293;59.296;18.006;2023-01-29T03:26:16;100600.31;;;-1.33;100.00
64835;BME280;51293;59.296;18.006;2023-01-29T03:29:02;100606.16;;;-1.29;100.00
64835;BME280;51293;59.296;18.006;2023-01-29T03:31:48;100596.69;;;-1.32;100.00
64835;BME280;51293;59.296;18.006;2023-01-29T03:34:39;100592.22;;;-1.31;100.00
64835;BME280;51293;59.296;18.006;2023-01-29T03:39:45;100585.22;;;-1.32;100.00
64835;BME280;51293;59.296;18.006;2023-01-29T03:42:27;100589.59;;;-1.23;100.00
64835;BME280;51293;59.296;18.006;2023-01-29T03:47:59;100586.13;;;-1.24;100.00
64835;BME280;51293;59.296;18.006;2023-01-29T03:50:51;100586.44;;;-1.19;100.00
64835;BME280;51293;59.296;18.006;2023-01-29T03:56:08;100575.81;;;-1.19;100.00
64835;BME280;51293;59.296;18.006;2023-01-29T03:58:38;100574.31;;;-1.21;100.00
64835;BME280;51293;59.296;18.006;2023-01-29T04:01:11;100574.19;;;-1.11;100.00
64835;BME280;51293;59.296;18.006;2023-01-29T04:03:42;100579.34;;;-1.10;100.00
64835;BME280;51293;59.296;18.006;2023-01-29T04:06:20;100570.38;;;-1.09;100.00
64835;BME280;51293;59.296;18.006;2023-01-29T04:11:30;100555.44;;;-1.10;100.00
64835;BME280;51293;59.296;18.006;2023-01-29T04:13:57;100556.78;;;-1.06;100.00
64835;BME280;51293;59.296;18.006;2023-01-29T04:16:27;100562.47;;;-0.93;100.00
64835;BME280;51293;59.296;18.006;2023-01-29T04:18:53;100564.28;;;-1.01;100.00
64835;BME280;51293;59.296;18.006;2023-01-29T04:21:19;100550.19;;;-0.94;100.00
64835;BME280;51293;59.296;18.006;2023-01-29T04:23:45;100557.16;;;-0.93;100.00
64835;BME280;51293;59.296;18.006;2023-01-29T04:29:15;100550.84;;;-0.92;100.00
64835;BME280;51293;59.296;18.006;2023-01-29T04:32:10;100550.03;;;-0.84;100.00
64835;BME280;51293;59.296;18.006;2023-01-29T04:37:36;100546.06;;;-0.88;100.00
64835;BME280;51293;59.296;18.006;2023-01-29T04:40:11;100536.09;;;-0.86;100.00
64835;BME280;51293;59.296;18.006;2023-01-29T04:42:50;100522.47;;;-0.83;100.00
64835;BME280;51293;59.296;18.006;2023-01-29T04:48:22;100520.16;;;-0.78;100.00
64835;BME280;51293;59.296;18.006;2023-01-29T04:51:12;100522.47;;;-0.83;100.00
64835;BME280;51293;59.296;18.006;2023-01-29T04:53:47;100519.13;;;-0.85;100.00
64835;BME280;51293;59.296;18.006;2023-01-29T04:56:29;100500.88;;;-0.80;100.00
64835;BME280;51293;59.296;18.006;2023-01-29T04:59:05;100498.84;;;-0.86;100.00
64835;BME280;51293;59.296;18.006;2023-01-29T05:01:32;100497.84;;;-0.85;100.00
64835;BME280;51293;59.296;18.006;2023-01-29T05:04:03;100492.38;;;-0.83;100.00
64835;BME280;51293;59.296;18.006;2023-01-29T05:06:31;100481.91;;;-0.85;100.00
64835;BME280;51293;59.296;18.006;2023-01-29T05:08:58;100474.91;;;-0.86;100.00
64835;BME280;51293;59.296;18.006;2023-01-29T05:11:25;100474.28;;;-0.80;100.00
64835;BME280;51293;59.296;18.006;2023-01-29T05:13:50;100464.81;;;-0.74;100.00
64835;BME280;51293;59.296;18.006;2023-01-29T05:16:20;100454.66;;;-0.79;100.00
64835;BME280;51293;59.296;18.006;2023-01-29T05:18:47;100457.31;;;-0.79;100.00
64835;BME280;51293;59.296;18.006;2023-01-29T05:21:12;100447.34;;;-0.77;100.00
64835;BME280;51293;59.296;18.006;2023-01-29T05:23:38;100433.03;;;-0.84;100.00
64835;BME280;51293;59.296;18.006;2023-01-29T05:26:04;100429.53;;;-0.85;100.00
64835;BME280;51293;59.296;18.006;2023-01-29T05:28:29;100411.63;;;-0.74;100.00
64835;BME280;51293;59.296;18.006;2023-01-29T05:30:55;100411.78;;;-0.76;100.00
64835;BME280;51293;59.296;18.006;2023-01-29T05:33:23;100413.78;;;-0.78;100.00
64835;BME280;51293;59.296;18.006;2023-01-29T05:35:49;100410.47;;;-0.80;100.00
64835;BME280;51293;59.296;18.006;2023-01-29T05:38:16;100399.16;;;-0.82;100.00
64835;BME280;51293;59.296;18.006;2023-01-29T05:40:43;100402.78;;;-0.91;100.00
64835;BME280;51293;59.296;18.006;2023-01-29T05:43:14;100386.00;;;-0.92;100.00
64835;BME280;51293;59.296;18.006;2023-01-29T05:45:40;100388.66;;;-0.83;100.00
64835;BME280;51293;59.296;18.006;2023-01-29T05:48:05;100374.53;;;-0.84;100.00
64835;BME280;51293;59.296;18.006;2023-01-29T05:50:30;100372.72;;;-0.83;100.00
64835;BME280;51293;59.296;18.006;2023-01-29T05:53:00;100378.53;;;-0.80;100.00
64835;BME280;51293;59.296;18.006;2023-01-29T05:55:26;100375.88;;;-0.80;100.00
64835;BME280;51293;59.296;18.006;2023-01-29T05:57:53;100364.41;;;-0.89;100.00
64835;BME280;51293;59.296;18.006;2023-01-29T06:00:19;100368.22;;;-0.91;100.00
64835;BME280;51293;59.296;18.006;2023-01-29T06:02:44;100368.38;;;-0.85;100.00
64835;BME280;51293;59.296;18.006;2023-01-29T06:05:10;100354.25;;;-0.85;100.00
64835;BME280;51293;59.296;18.006;2023-01-29T06:07:35;100349.78;;;-0.85;100.00
64835;BME280;51293;59.296;18.006;2023-01-29T06:10:02;100345.63;;;-0.79;100.00
64835;BME280;51293;59.296;18.006;2023-01-29T06:12:27;100343.81;;;-0.87;100.00
64835;BME280;51293;59.296;18.006;2023-01-29T06:14:53;100347.94;;;-0.92;100.00
64835;BME280;51293;59.296;18.006;2023-01-29T06:17:18;100355.78;;;-0.91;100.00
64835;BME280;51293;59.296;18.006;2023-01-29T06:19:45;100343.63;;;-0.85;100.00
64835;BME280;51293;59.296;18.006;2023-01-29T06:22:10;100343.16;;;-0.89;100.00
64835;BME280;51293;59.296;18.006;2023-01-29T06:24:36;100342.63;;;-0.84;100.00
64835;BME280;51293;59.296;18.006;2023-01-29T06:27:01;100346.94;;;-0.83;100.00
64835;BME280;51293;59.296;18.006;2023-01-29T06:29:26;100365.56;;;-0.83;100.00
64835;BME280;51293;59.296;18.006;2023-01-29T06:31:52;100372.72;;;-0.83;100.00
64835;BME280;51293;59.296;18.006;2023-01-29T06:34:17;100376.53;;;-0.78;100.00
64835;BME280;51293;59.296;18.006;2023-01-29T06:36:42;100372.72;;;-0.83;100.00
64835;BME280;51293;59.296;18.006;2023-01-29T06:39:08;100367.25;;;-0.82;100.00
64835;BME280;51293;59.296;18.006;2023-01-29T06:41:33;100353.78;;;-0.80;100.00
64835;BME280;51293;59.296;18.006;2023-01-29T06:43:59;100348.13;;;-0.86;100.00
64835;BME280;51293;59.296;18.006;2023-01-29T06:46:24;100347.47;;;-0.88;100.00
64835;BME280;51293;59.296;18.006;2023-01-29T06:48:50;100348.63;;;-0.82;100.00
64835;BME280;51293;59.296;18.006;2023-01-29T06:51:15;100344.81;;;-0.79;100.00
64835;BME280;51293;59.296;18.006;2023-01-29T06:53:41;100342.13;;;-0.88;100.00
64835;BME280;51293;59.296;18.006;2023-01-29T06:56:07;100341.13;;;-0.87;100.00
64835;BME280;51293;59.296;18.006;2023-01-29T06:58:34;100340.66;;;-0.90;100.00
64835;BME280;51293;59.296;18.006;2023-01-29T07:01:08;100334.50;;;-0.91;100.00
64835;BME280;51293;59.296;18.006;2023-01-29T07:03:34;100324.69;;;-0.90;100.00
64835;BME280;51293;59.296;18.006;2023-01-29T07:06:00;100313.91;;;-0.97;100.00
64835;BME280;51293;59.296;18.006;2023-01-29T07:08:25;100306.22;;;-1.00;100.00
64835;BME280;51293;59.296;18.006;2023-01-29T07:10:50;100303.75;;;-1.01;100.00
64835;BME280;51293;59.296;18.006;2023-01-29T07:13:16;100308.88;;;-1.00;100.00
64835;BME280;51293;59.296;18.006;2023-01-29T07:15:41;100294.13;;;-1.02;100.00
64835;BME280;51293;59.296;18.006;2023-01-29T07:18:09;100294.94;;;-1.02;100.00
64835;BME280;51293;59.296;18.006;2023-01-29T07:20:38;100282.66;;;-0.95;100.00
64835;BME280;51293;59.296;18.006;2023-01-29T07:23:04;100277.69;;;-1.06;100.00
64835;BME280;51293;59.296;18.006;2023-01-29T07:25:30;100277.69;;;-0.98;100.00
64835;BME280;51293;59.296;18.006;2023-01-29T07:27:59;100266.03;;;-0.97;100.00
64835;BME280;51293;59.296;18.006;2023-01-29T07:30:24;100267.53;;;-1.02;100.00
64835;BME280;51293;59.296;18.006;2023-01-29T07:32:49;100261.91;;;-0.99;100.00
64835;BME280;51293;59.296;18.006;2023-01-29T07:35:15;100266.34;;;-1.00;100.00
64835;BME280;51293;59.296;18.006;2023-01-29T07:37:40;100252.91;;;-0.98;100.00
64835;BME280;51293;59.296;18.006;2023-01-29T07:40:06;100255.88;;;-0.93;100.00
64835;BME280;51293;59.296;18.006;2023-01-29T07:42:38;100244.41;;;-0.77;100.00
64835;BME280;51293;59.296;18.006;2023-01-29T07:45:05;100248.06;;;-0.78;100.00
64835;BME280;51293;59.296;18.006;2023-01-29T07:47:31;100248.06;;;-0.78;100.00
64835;BME280;51293;59.296;18.006;2023-01-29T07:49:56;100253.38;;;-0.78;100.00
64835;BME280;51293;59.296;18.006;2023-01-29T07:52:21;100245.06;;;-0.75;100.00
64835;BME280;51293;59.296;18.006;2023-01-29T07:54:47;100249.06;;;-0.71;100.00
64835;BME280;51293;59.296;18.006;2023-01-29T07:57:12;100235.56;;;-0.70;100.00
64835;BME280;51293;59.296;18.006;2023-01-29T07:59:37;100220.25;;;-0.60;100.00
64835;BME280;51293;59.296;18.006;2023-01-29T08:02:03;100213.63;;;-0.64;100.00
64835;BME280;51293;59.296;18.006;2023-01-29T08:04:28;100208.47;;;-0.57;100.00
64835;BME280;51293;59.296;18.006;2023-01-29T08:06:53;100206.13;;;-0.60;100.00
64835;BME280;51293;59.296;18.006;2023-01-29T08:09:19;100203.97;;;-0.57;100.00
64835;BME280;51293;59.296;18.006;2023-01-29T08:11:44;100197.13;;;-0.59;100.00
64835;BME280;51293;59.296;18.006;2023-01-29T08:14:09;100197.81;;;-0.57;100.00
64835;BME280;51293;59.296;18.006;2023-01-29T08:16:35;100189.31;;;-0.52;100.00
64835;BME280;51293;59.296;18.006;2023-01-29T08:19:01;100189.16;;;-0.59;100.00
64835;BME280;51293;59.296;18.006;2023-01-29T08:21:26;100182.84;;;-0.58;100.00
64835;BME280;51293;59.296;18.006;2023-01-29T08:23:52;100173.69;;;-0.55;100.00
64835;BME280;51293;59.296;18.006;2023-01-29T08:26:24;100167.03;;;-0.51;100.00
64835;BME280;51293;59.296;18.006;2023-01-29T08:28:51;100170.88;;;-0.54;100.00
64835;BME280;51293;59.296;18.006;2023-01-29T08:31:18;100165.97;;;-0.42;100.00
64835;BME280;51293;59.296;18.006;2023-01-29T08:33:47;100162.03;;;-0.46;100.00
64835;BME280;51293;59.296;18.006;2023-01-29T08:36:12;100149.72;;;-0.47;100.00
64835;BME280;51293;59.296;18.006;2023-01-29T08:38:38;100155.66;;;-0.37;100.00
64835;BME280;51293;59.296;18.006;2023-01-29T08:41:04;100152.16;;;-0.38;100.00
64835;BME280;51293;59.296;18.006;2023-01-29T08:43:30;100155.50;;;-0.44;100.00
64835;BME280;51293;59.296;18.006;2023-01-29T08:45:55;100166.31;;;-0.37;100.00
64835;BME280;51293;59.296;18.006;2023-01-29T08:48:21;100168.94;;;-0.29;100.00
64835;BME280;51293;59.296;18.006;2023-01-29T08:50:46;100164.28;;;-0.35;100.00
64835;BME280;51293;59.296;18.006;2023-01-29T08:53:12;100152.50;;;-0.33;100.00
64835;BME280;51293;59.296;18.006;2023-01-29T08:55:38;100131.66;;;-0.29;100.00
64835;BME280;51293;59.296;18.006;2023-01-29T08:58:05;100126.66;;;-0.24;100.00
64835;BME280;51293;59.296;18.006;2023-01-29T09:00:32;100126.81;;;-0.25;100.00
64835;BME280;51293;59.296;18.006;2023-01-29T09:02:57;100130.16;;;-0.23;100.00
64835;BME280;51293;59.296;18.006;2023-01-29T09:05:24;100129.91;;;-0.14;100.00
64835;BME280;51293;59.296;18.006;2023-01-29T09:07:49;100125.56;;;-0.07;100.00
64835;BME280;51293;59.296;18.006;2023-01-29T09:10:15;100120.56;;;-0.10;100.00
64835;BME280;51293;59.296;18.006;2023-01-29T09:12:40;100126.44;;;-0.14;100.00
64835;BME280;51293;59.296;18.006;2023-01-29T09:15:06;100126.25;;;-0.13;100.00
64835;BME280;51293;59.296;18.006;2023-01-29T09:17:32;100101.94;;;-0.10;100.00
64835;BME280;51293;59.296;18.006;2023-01-29T09:19:57;100095.72;;;-0.02;100.00
64835;BME280;51293;59.296;18.006;2023-01-29T09:22:22;100091.41;;;-0.03;100.00
64835;BME280;51293;59.296;18.006;2023-01-29T09:24:48;100088.75;;;-0.03;100.00
64835;BME280;51293;59.296;18.006;2023-01-29T09:27:13;100100.81;;;0.08;100.00
64835;BME280;51293;59.296;18.006;2023-01-29T09:29:39;100106.03;;;0.01;100.00
64835;BME280;51293;59.296;18.006;2023-01-29T09:32:04;100115.66;;;0.02;100.00
64835;BME280;51293;59.296;18.006;2023-01-29T09:34:30;100115.19;;;-0.02;100.00
64835;BME280;51293;59.296;18.006;2023-01-29T09:36:55;100097.88;;;0.03;100.00
64835;BME280;51293;59.296;18.006;2023-01-29T09:39:21;100093.53;;;0.02;100.00
64835;BME280;51293;59.296;18.006;2023-01-29T09:42:05;100093.41;;;0.18;100.00
64835;BME280;51293;59.296;18.006;2023-01-29T09:47:27;100058.81;;;0.18;100.00
64835;BME280;51293;59.296;18.006;2023-01-29T09:53:10;100052.72;;;0.24;100.00
64835;BME280;51293;59.296;18.006;2023-01-29T09:55:36;100055.94;;;0.19;100.00
64835;BME280;51293;59.296;18.006;2023-01-29T09:58:17;100046.94;;;0.20;100.00
64835;BME280;51293;59.296;18.006;2023-01-29T10:00:53;100044.66;;;0.17;100.00
64835;BME280;51293;59.296;18.006;2023-01-29T10:08:57;100047.25;;;0.25;100.00
64835;BME280;51293;59.296;18.006;2023-01-29T10:12:11;100027.22;;;0.30;100.00
64835;BME280;51293;59.296;18.006;2023-01-29T10:14:58;100022.72;;;0.30;100.00
64835;BME280;51293;59.296;18.006;2023-01-29T10:20:13;100018.63;;;0.42;100.00
64835;BME280;51293;59.296;18.006;2023-01-29T10:25:32;100008.31;;;0.54;100.00
64835;BME280;51293;59.296;18.006;2023-01-29T10:28:00;100009.53;;;0.51;100.00
64835;BME280;51293;59.296;18.006;2023-01-29T10:30:35;100003.19;;;0.67;100.00
64835;BME280;51293;59.296;18.006;2023-01-29T10:33:04;99999.69;;;0.67;100.00
64835;BME280;51293;59.296;18.006;2023-01-29T10:35:33;99996.28;;;0.73;100.00
64835;BME280;51293;59.296;18.006;2023-01-29T10:38:20;99986.72;;;0.78;100.00
64835;BME280;51293;59.296;18.006;2023-01-29T10:43:46;99973.72;;;0.90;100.00
64835;BME280;51293;59.296;18.006;2023-01-29T10:51:38;99955.78;;;0.99;100.00
64835;BME280;51293;59.296;18.006;2023-01-29T11:02:18;99945.28;;;1.12;100.00
64835;BME280;51293;59.296;18.006;2023-01-29T11:04:45;99940.34;;;1.09;100.00
64835;BME280;51293;59.296;18.006;2023-01-29T11:07:12;99929.47;;;1.10;100.00
64835;BME280;51293;59.296;18.006;2023-01-29T11:09:44;99927.72;;;1.18;100.00
64835;BME280;51293;59.296;18.006;2023-01-29T11:12:14;99924.84;;;1.19;100.00
64835;BME280;51293;59.296;18.006;2023-01-29T11:15:04;99921.34;;;1.19;100.00
64835;BME280;51293;59.296;18.006;2023-01-29T11:17:31;99910.38;;;1.28;100.00
64835;BME280;51293;59.296;18.006;2023-01-29T11:19:57;99911.38;;;1.27;100.00
64835;BME280;51293;59.296;18.006;2023-01-29T11:22:24;99903.44;;;1.34;100.00
64835;BME280;51293;59.296;18.006;2023-01-29T11:25:17;99886.28;;;1.43;100.00
64835;BME280;51293;59.296;18.006;2023-01-29T11:27:48;99885.88;;;1.46;100.00
64835;BME280;51293;59.296;18.006;2023-01-29T11:30:26;99879.41;;;1.55;100.00
64835;BME280;51293;59.296;18.006;2023-01-29T11:33:19;99856.66;;;1.59;100.00
64835;BME280;51293;59.296;18.006;2023-01-29T11:35:46;99843.69;;;1.56;100.00
64835;BME280;51293;59.296;18.006;2023-01-29T11:40:40;99825.53;;;1.73;100.00
64835;BME280;51293;59.296;18.006;2023-01-29T11:45:40;99819.00;;;1.76;100.00
64835;BME280;51293;59.296;18.006;2023-01-29T11:48:13;99816.16;;;1.84;100.00
64835;BME280;51293;59.296;18.006;2023-01-29T11:50:40;99809.56;;;1.80;100.00
64835;BME280;51293;59.296;18.006;2023-01-29T11:53:31;99805.47;;;1.84;100.00
64835;BME280;51293;59.296;18.006;2023-01-29T11:55:58;99786.78;;;1.84;100.00
64835;BME280;51293;59.296;18.006;2023-01-29T11:58:27;99779.34;;;1.79;100.00
64835;BME280;51293;59.296;18.006;2023-01-29T12:00:55;99772.00;;;1.88;100.00
64835;BME280;51293;59.296;18.006;2023-01-29T12:03:39;99764.19;;;1.86;99.75
64835;BME280;51293;59.296;18.006;2023-01-29T12:06:20;99758.06;;;1.92;99.85
64835;BME280;51293;59.296;18.006;2023-01-29T12:09:00;99755.91;;;2.09;98.64
64835;BME280;51293;59.296;18.006;2023-01-29T12:11:33;99758.31;;;2.04;98.59
64835;BME280;51293;59.296;18.006;2023-01-29T12:14:04;99744.59;;;2.07;98.24
64835;BME280;51293;59.296;18.006;2023-01-29T12:16:37;99726.69;;;2.01;99.02
64835;BME280;51293;59.296;18.006;2023-01-29T12:19:13;99716.66;;;2.10;98.05
64835;BME280;51293;59.296;18.006;2023-01-29T12:21:49;99709.47;;;2.17;97.94
64835;BME280;51293;59.296;18.006;2023-01-29T12:24:48;99708.44;;;2.11;97.87
64835;BME280;51293;59.296;18.006;2023-01-29T12:27:45;99718.06;;;2.06;98.25
64835;BME280;51293;59.296;18.006;2023-01-29T12:30:19;99703.88;;;2.05;98.16
64835;BME280;51293;59.296;18.006;2023-01-29T12:33:00;99688.50;;;2.07;98.08
64835;BME280;51293;59.296;18.006;2023-01-29T12:35:30;99681.47;;;2.00;98.84
64835;BME280;51293;59.296;18.006;2023-01-29T12:38:16;99667.69;;;1.96;99.24
64835;BME280;51293;59.296;18.006;2023-01-29T12:40:46;99670.78;;;2.00;99.12
64835;BME280;51293;59.296;18.006;2023-01-29T12:43:21;99659.28;;;1.99;99.03
64835;BME280;51293;59.296;18.006;2023-01-29T12:45:49;99666.09;;;2.08;99.01
64835;BME280;51293;59.296;18.006;2023-01-29T12:48:32;99643.91;;;2.08;99.08
64835;BME280;51293;59.296;18.006;2023-01-29T12:51:08;99640.41;;;2.07;99.22
64835;BME280;51293;59.296;18.006;2023-01-29T12:53:38;99642.06;;;2.08;99.32
64835;BME280;51293;59.296;18.006;2023-01-29T12:56:12;99627.88;;;2.08;99.26
64835;BME280;51293;59.296;18.006;2023-01-29T12:58:45;99630.31;;;2.03;99.96
64835;BME280;51293;59.296;18.006;2023-01-29T13:01:14;99622.09;;;2.04;100.00
64835;BME280;51293;59.296;18.006;2023-01-29T13:03:52;99612.03;;;2.00;100.00
64835;BME280;51293;59.296;18.006;2023-01-29T13:06:30;99623.34;;;2.08;100.00
64835;BME280;51293;59.296;18.006;2023-01-29T13:09:03;99616.94;;;1.96;100.00
64835;BME280;51293;59.296;18.006;2023-01-29T13:12:10;99614.31;;;2.09;100.00
64835;BME280;51293;59.296;18.006;2023-01-29T13:14:44;99619.44;;;2.11;100.00
64835;BME280;51293;59.296;18.006;2023-01-29T13:17:30;99612.66;;;2.15;100.00
64835;BME280;51293;59.296;18.006;2023-01-29T13:20:00;99597.84;;;2.06;100.00
64835;BME280;51293;59.296;18.006;2023-01-29T13:22:32;99596.44;;;2.10;100.00
64835;BME280;51293;59.296;18.006;2023-01-29T13:24:59;99582.47;;;2.08;100.00
64835;BME280;51293;59.296;18.006;2023-01-29T13:27:29;99586.38;;;2.12;100.00
64835;BME280;51293;59.296;18.006;2023-01-29T13:29:56;99567.66;;;2.12;100.00
64835;BME280;51293;59.296;18.006;2023-01-29T13:32:29;99552.66;;;2.11;100.00
64835;BME280;51293;59.296;18.006;2023-01-29T13:34:58;99548.16;;;2.11;100.00
64835;BME280;51293;59.296;18.006;2023-01-29T13:37:32;99560.91;;;2.16;100.00
64835;BME280;51293;59.296;18.006;2023-01-29T13:40:00;99550.41;;;2.14;100.00
64835;BME280;51293;59.296;18.006;2023-01-29T13:42:46;99553.50;;;2.11;100.00
64835;BME280;51293;59.296;18.006;2023-01-29T13:45:33;99565.63;;;2.20;100.00
64835;BME280;51293;59.296;18.006;2023-01-29T13:48:25;99540.53;;;2.15;100.00
64835;BME280;51293;59.296;18.006;2023-01-29T13:50:53;99534.38;;;2.14;100.00
64835;BME280;51293;59.296;18.006;2023-01-29T13:53:35;99529.66;;;2.16;100.00
64835;BME280;51293;59.296;18.006;2023-01-29T14:06:46;99475.38;;;2.22;100.00
64835;BME280;51293;59.296;18.006;2023-01-29T14:09:31;99472.72;;;2.22;100.00
64835;BME280;51293;59.296;18.006;2023-01-29T14:11:57;99460.38;;;2.21;100.00
64835;BME280;51293;59.296;18.006;2023-01-29T14:17:17;99443.75;;;2.26;100.00